Time;durP1;ratioP1;P1;durP2;ratioP2;P2;SDS_P1;SDS_P2;PMS_P1;PMS_P2;Temp;Humidity;BMP_temperature;BMP_pressure;BME280_temperature;BME280_humidity;BME280_pressure;Samples;Min_cycle;Max_cycle;Signal;HPM_P1;HPM_P2
2022/04/18 00:01:34;;;;;;;13.63;11.10;;;9.30;91.20;;;;;;5011706;28;20041;-71
2022/04/18 00:04:00;;;;;;;14.97;11.33;;;9.70;78.40;;;;;;5021039;28;20048;-71
2022/04/18 00:06:26;;;;;;;18.53;13.47;;;9.20;78.00;;;;;;5031178;28;20057;-71
2022/04/18 00:08:51;;;;;;;13.00;11.63;;;9.10;91.30;;;;;;5031600;28;20060;-71
2022/04/18 00:11:17;;;;;;;19.33;13.70;;;9.20;91.60;;;;;;5017044;28;20458;-71
2022/04/18 00:13:43;;;;;;;17.40;13.47;;;9.30;91.60;;;;;;5018461;28;20033;-71
2022/04/18 00:16:08;;;;;;;19.30;12.77;;;9.20;91.60;;;;;;5030862;28;20045;-71
2022/04/18 00:18:33;;;;;;;20.03;13.17;;;9.20;91.70;;;;;;5029467;28;20038;-71
2022/04/18 00:20:59;;;;;;;18.33;13.23;;;9.20;91.80;;;;;;5026707;28;20020;-71
2022/04/18 00:23:24;;;;;;;16.10;12.30;;;8.80;91.60;;;;;;5016437;28;20053;-71
2022/04/18 00:25:50;;;;;;;16.30;11.93;;;9.00;79.40;;;;;;5011246;28;20053;-71
2022/04/18 00:28:15;;;;;;;17.57;12.10;;;8.90;92.10;;;;;;5014359;28;20880;-71
2022/04/18 00:30:41;;;;;;;16.97;12.40;;;8.70;92.10;;;;;;5029279;28;20022;-71
2022/04/18 00:33:09;;;;;;;14.80;11.57;;;8.70;92.20;;;;;;5019367;28;20022;-71
2022/04/18 00:35:35;;;;;;;16.10;11.40;;;8.60;92.30;;;;;;5017195;28;20091;-71
2022/04/18 00:38:00;;;;;;;15.20;11.40;;;8.70;92.40;;;;;;5028506;28;20041;-71
2022/04/18 00:40:26;;;;;;;14.63;12.77;;;8.70;81.20;;;;;;5010410;28;20483;-71
2022/04/18 00:42:51;;;;;;;19.37;13.10;;;8.70;92.80;;;;;;5011262;28;20030;-71
2022/04/18 00:45:17;;;;;;;16.83;12.03;;;8.60;92.80;;;;;;5009895;28;20049;-71
2022/04/18 00:47:42;;;;;;;12.37;10.40;;;8.40;92.80;;;;;;5010921;28;20026;-71
2022/04/18 00:50:09;;;;;;;16.47;12.13;;;8.40;92.80;;;;;;5027446;28;20036;-70
2022/04/18 00:52:37;;;;;;;18.00;13.03;;;8.50;93.10;;;;;;5013893;28;20163;-71
2022/04/18 00:55:03;;;;;;;14.77;11.67;;;8.40;93.00;;;;;;5029604;28;20021;-71
2022/04/18 00:57:29;;;;;;;19.30;13.87;;;8.40;93.20;;;;;;5030391;28;20047;-72
2022/04/18 00:59:55;;;;;;;14.33;11.93;;;8.30;93.20;;;;;;5013499;28;20026;-71
2022/04/18 01:02:20;;;;;;;13.60;11.10;;;8.30;93.30;;;;;;5010652;28;20456;-71
2022/04/18 01:04:46;;;;;;;15.57;11.30;;;8.20;93.40;;;;;;5025963;28;20033;-71
2022/04/18 01:07:12;;;;;;;10.73;9.33;;;8.30;93.70;;;;;;5030163;28;20513;-71
2022/04/18 01:09:38;;;;;;;14.83;11.70;;;8.00;93.50;;;;;;5015008;28;20037;-72
2022/04/18 01:12:04;;;;;;;15.50;12.33;;;;;;;;;;5028517;28;20418;-71
2022/04/18 01:14:30;;;;;;;18.30;12.23;;;8.20;93.70;;;;;;5028528;28;20037;-71
2022/04/18 01:16:56;;;;;;;16.97;13.37;;;8.10;94.30;;;;;;5030310;28;20045;-71
2022/04/18 01:19:21;;;;;;;20.93;15.67;;;7.70;94.20;;;;;;5016468;28;20040;-70
2022/04/18 01:21:47;;;;;;;16.23;12.57;;;8.10;94.40;;;;;;5012227;28;20037;-71
2022/04/18 01:29:41;;;;;;;15.50;13.23;;;8.00;94.40;;;;;;5027283;28;20403;-70
2022/04/18 01:32:07;;;;;;;19.97;15.20;;;8.00;94.30;;;;;;5021067;28;20030;-70
2022/04/18 01:34:32;;;;;;;20.30;16.33;;;8.00;94.70;;;;;;5014049;28;20037;-71
2022/04/18 01:36:57;;;;;;;18.93;12.80;;;8.00;94.70;;;;;;5027091;28;20077;-71
2022/04/18 01:39:24;;;;;;;17.03;13.60;;;7.90;94.70;;;;;;5029491;28;20040;-70
2022/04/18 01:41:50;;;;;;;23.60;16.13;;;8.00;95.00;;;;;;5029931;28;20045;-71
2022/04/18 01:44:16;;;;;;;17.73;13.67;;;7.90;94.90;;;;;;5026717;28;20088;-71
2022/04/18 01:46:41;;;;;;;17.77;12.23;;;7.90;94.80;;;;;;5029869;28;20029;-70
2022/04/18 01:49:07;;;;;;;14.23;12.13;;;7.60;94.80;;;;;;5029552;28;20385;-71
2022/04/18 01:51:32;;;;;;;14.47;12.30;;;7.80;92.00;;;;;;5021992;28;20030;-71
2022/04/18 01:53:58;;;;;;;16.50;13.30;;;7.80;94.80;;;;;;5018169;28;20504;-71
2022/04/18 01:56:23;;;;;;;14.80;11.67;;;7.80;94.90;;;;;;5029932;28;20167;-71
2022/04/18 01:58:49;;;;;;;15.20;11.67;;;8.10;93.90;;;;;;5026648;28;20129;-71
2022/04/18 02:01:15;;;;;;;15.53;12.70;;;7.70;95.30;;;;;;5018740;28;20036;-71
2022/04/18 02:03:42;;;;;;;14.80;12.40;;;7.70;91.10;;;;;;5022427;28;20030;-71
2022/04/18 02:06:08;;;;;;;16.20;11.57;;;7.40;95.20;;;;;;5012043;28;20179;-70
2022/04/18 02:08:35;;;;;;;16.47;12.90;;;7.70;95.30;;;;;;5023419;28;20029;-71
2022/04/18 02:11:00;;;;;;;14.80;11.83;;;7.70;95.40;;;;;;5009879;28;20018;-72
2022/04/18 02:13:28;;;;;;;13.43;10.97;;;7.90;95.30;;;;;;5011412;28;20383;-71
2022/04/18 02:15:55;;;;;;;16.80;11.17;;;7.80;95.30;;;;;;5019003;28;20017;-71
2022/04/18 02:18:21;;;;;;;12.70;10.87;;;8.10;95.30;;;;;;5029276;28;20029;-71
2022/04/18 02:20:46;;;;;;;12.17;9.93;;;7.50;92.90;;;;;;5029202;28;20025;-70
2022/04/18 02:23:12;;;;;;;14.73;12.60;;;;;;;;;;5014829;28;20487;-71
2022/04/18 02:25:38;;;;;;;14.40;10.80;;;;;;;;;;5028239;28;20087;-71
2022/04/18 02:28:04;;;;;;;15.90;11.63;;;;;;;;;;5011439;28;20048;-71
2022/04/18 02:30:30;;;;;;;12.50;10.70;;;7.20;91.40;;;;;;5027800;28;20025;-71
2022/04/18 02:32:56;;;;;;;13.70;12.30;;;;;;;;;;5020431;28;20368;-71
2022/04/18 02:35:23;;;;;;;14.10;10.60;;;7.10;90.60;;;;;;5018429;28;20060;-71
2022/04/18 02:37:49;;;;;;;11.73;10.37;;;;;;;;;;5029306;28;20037;-71
2022/04/18 02:40:15;;;;;;;11.43;8.43;;;7.10;96.20;;;;;;5025357;28;20426;-71
2022/04/18 02:42:42;;;;;;;13.00;11.60;;;7.00;89.10;;;;;;5009514;28;20037;-71
2022/04/18 02:45:09;;;;;;;16.47;12.97;;;7.00;91.70;;;;;;5024679;28;20418;-71
2022/04/18 02:47:35;;;;;;;17.53;13.53;;;;;;;;;;5031528;28;20072;-71
2022/04/18 02:50:01;;;;;;;14.53;12.03;;;7.20;96.40;;;;;;5032180;28;20080;-70
2022/04/18 02:52:27;;;;;;;16.33;12.37;;;;;;;;;;5015059;28;20060;-70
2022/04/18 02:54:52;;;;;;;16.30;11.80;;;7.00;96.50;;;;;;5032738;28;20104;-70
2022/04/18 02:57:18;;;;;;;16.27;11.23;;;6.60;96.70;;;;;;5016383;28;20132;-71
2022/04/18 02:59:43;;;;;;;15.47;11.40;;;6.80;92.30;;;;;;5013109;28;20048;-71
2022/04/18 03:02:09;;;;;;;16.27;11.23;;;6.70;96.80;;;;;;5018345;28;20104;-70
2022/04/18 03:04:35;;;;;;;13.13;11.03;;;;;;;;;;5032093;28;20037;-71
2022/04/18 03:07:01;;;;;;;15.57;12.57;;;6.60;97.00;;;;;;5032156;28;20036;-70
2022/04/18 03:09:27;;;;;;;13.90;10.90;;;;;;;;;;5032008;28;20041;-71
2022/04/18 03:11:53;;;;;;;18.10;12.27;;;6.40;97.20;;;;;;5032754;28;20040;-70
2022/04/18 03:14:19;;;;;;;11.87;10.67;;;;;;;;;;5020364;28;20030;-70
2022/04/18 03:16:45;;;;;;;13.20;11.43;;;6.30;97.40;;;;;;5028526;28;20483;-70
2022/04/18 03:19:11;;;;;;;13.40;11.33;;;;;;;;;;5031319;28;20025;-70
2022/04/18 03:21:36;;;;;;;13.50;10.43;;;6.20;97.60;;;;;;5018303;28;20109;-70
2022/04/18 03:24:02;;;;;;;14.33;12.17;;;;;;;;;;5025363;28;20043;-70
2022/04/18 03:26:27;;;;;;;16.67;13.90;;;5.90;98.20;;;;;;5032103;28;20034;-71
2022/04/18 03:28:53;;;;;;;20.03;13.73;;;6.10;98.30;;;;;;5023129;28;20352;-70
2022/04/18 03:31:18;;;;;;;16.37;13.60;;;6.30;96.80;;;;;;5013230;28;20072;-70
2022/04/18 03:33:44;;;;;;;25.13;13.57;;;;;;;;;;5011663;28;20117;-70
2022/04/18 03:41:39;;;;;;;22.20;16.05;;;6.40;98.70;;;;;;5031879;28;20021;-71
2022/04/18 03:44:05;;;;;;;17.63;14.53;;;;;;;;;;5027496;28;20107;-71
2022/04/18 03:46:30;;;;;;;17.37;13.30;;;6.50;98.50;;;;;;5030576;28;20044;-71
2022/04/18 03:48:56;;;;;;;21.50;15.93;;;;;;;;;;5022181;28;20038;-71
2022/04/18 03:51:22;;;;;;;16.37;13.97;;;6.60;95.90;;;;;;5012083;28;20076;-71
2022/04/18 03:53:47;;;;;;;17.80;13.97;;;6.60;98.50;;;;;;5029765;28;20079;-71
2022/04/18 03:56:12;;;;;;;16.30;12.67;;;6.50;98.40;;;;;;5022887;28;20037;-71
2022/04/18 03:58:39;;;;;;;21.87;14.73;;;6.40;98.60;;;;;;5011654;28;20076;-71
2022/04/18 04:01:05;;;;;;;19.93;16.10;;;;;;;;;;5021961;28;20014;-71
2022/04/18 04:03:30;;;;;;;20.23;14.90;;;6.30;98.90;;;;;;5007839;28;20395;-71
2022/04/18 04:05:56;;;;;;;21.97;14.63;;;6.30;95.70;;;;;;5014709;28;20030;-71
2022/04/18 04:08:24;;;;;;;19.10;13.23;;;6.30;98.70;;;;;;5029225;28;20029;-71
2022/04/18 04:10:50;;;;;;;15.27;12.70;;;6.20;98.80;;;;;;5029514;28;20026;-71
2022/04/18 04:13:16;;;;;;;18.97;14.70;;;6.30;95.20;;;;;;5025628;28;20077;-71
2022/04/18 04:15:42;;;;;;;18.57;15.00;;;6.10;99.40;;;;;;5009763;28;20075;-71
2022/04/18 04:18:08;;;;;;;18.20;14.90;;;;;;;;;;5010135;28;20042;-71
2022/04/18 04:20:34;;;;;;;19.30;14.83;;;6.20;92.90;;;;;;5011171;28;20149;-71
2022/04/18 04:23:00;;;;;;;16.07;13.47;;;;;;;;;;5020341;28;20049;-71
2022/04/18 04:25:25;;;;;;;18.73;15.47;;;6.20;99.20;;;;;;5016619;28;20049;-71
2022/04/18 04:27:50;;;;;;;19.23;15.80;;;6.20;99.50;;;;;;5011513;28;20490;-71
2022/04/18 04:30:16;;;;;;;22.30;16.50;;;6.30;99.50;;;;;;5030141;28;20037;-71
2022/04/18 04:32:42;;;;;;;20.37;16.60;;;6.20;99.50;;;;;;5030549;28;20067;-71
2022/04/18 04:35:08;;;;;;;24.30;15.67;;;;;;;;;;5011630;28;20034;-71
2022/04/18 04:37:33;;;;;;;21.63;16.93;;;6.30;99.60;;;;;;5030411;28;20068;-71
2022/04/18 04:39:59;;;;;;;23.53;16.83;;;;;;;;;;5012682;28;20452;-71
2022/04/18 04:42:25;;;;;;;16.17;13.23;;;6.40;99.40;;;;;;5009958;28;20030;-71
2022/04/18 04:44:51;;;;;;;18.13;13.77;;;;;;;;;;5027222;28;20043;-71
2022/04/18 04:47:16;;;;;;;18.37;11.63;;;6.50;99.20;;;;;;5029903;28;20541;-71
2022/04/18 04:49:42;;;;;;;17.97;13.13;;;6.30;99.20;;;;;;5022694;28;20084;-71
2022/04/18 04:52:07;;;;;;;20.20;14.10;;;6.30;99.30;;;;;;5025611;28;20029;-71
2022/04/18 04:54:34;;;;;;;17.03;13.40;;;6.20;99.20;;;;;;5011828;28;20033;-71
2022/04/18 04:57:00;;;;;;;17.30;13.10;;;6.40;99.20;;;;;;5023165;28;20041;-71
2022/04/18 04:59:26;;;;;;;17.67;15.77;;;;;;;;;;5030024;28;20040;-71
2022/04/18 05:01:51;;;;;;;21.67;15.00;;;6.40;99.30;;;;;;5030433;28;20455;-71
2022/04/18 05:04:17;;;;;;;18.10;13.63;;;6.40;99.10;;;;;;5028922;28;20116;-71
2022/04/18 05:06:42;;;;;;;16.40;14.10;;;6.40;97.20;;;;;;5020201;28;20084;-71
2022/04/18 05:09:08;;;;;;;18.60;14.53;;;6.50;99.40;;;;;;5020565;28;20026;-71
2022/04/18 05:11:34;;;;;;;19.10;13.10;;;6.50;99.20;;;;;;5023104;28;20380;-71
2022/04/18 05:13:59;;;;;;;12.83;11.53;;;6.20;99.00;;;;;;5011013;28;20038;-71
2022/04/18 05:16:25;;;;;;;16.67;14.17;;;6.40;99.20;;;;;;5009214;28;20034;-71
2022/04/18 05:18:50;;;;;;;15.23;12.93;;;6.30;95.00;;;;;;5010596;28;20034;-70
2022/04/18 05:21:16;;;;;;;17.30;11.83;;;5.60;92.10;;;;;;5028319;28;20030;-70
2022/04/18 05:23:42;;;;;;;19.03;15.13;;;;;;;;;;5025728;28;20036;-71
2022/04/18 05:26:08;;;;;;;22.67;14.43;;;6.50;99.20;;;;;;5029265;28;20490;-70
2022/04/18 05:28:35;;;;;;;17.73;14.43;;;6.70;99.10;;;;;;5029369;28;20025;-71
2022/04/18 05:31:02;;;;;;;19.07;14.03;;;;;;;;;;5028797;28;20113;-70
2022/04/18 05:33:28;;;;;;;18.73;15.17;;;6.60;99.10;;;;;;5029317;28;20029;-70
2022/04/18 05:35:53;;;;;;;20.40;15.60;;;6.80;95.20;;;;;;5028093;28;20025;-71
2022/04/18 05:38:19;;;;;;;15.83;12.53;;;;;;;;;;5027782;28;20033;-70
2022/04/18 05:40:45;;;;;;;16.03;12.50;;;;;;;;;;5028405;28;20087;-71
2022/04/18 05:43:11;;;;;;;16.37;12.80;;;;;;;;;;5028483;28;20045;-71
2022/04/18 05:45:38;;;;;;;16.80;11.90;;;6.90;94.90;;;;;;5029858;28;20029;-71
2022/04/18 05:48:04;;;;;;;15.87;11.73;;;7.00;98.90;;;;;;5027772;28;20021;-71
2022/04/18 05:50:29;;;;;;;12.90;11.10;;;7.10;98.80;;;;;;5010068;28;20402;-71
2022/04/18 05:52:55;;;;;;;12.87;10.43;;;7.00;98.70;;;;;;5023917;28;20049;-71
2022/04/18 05:55:21;;;;;;;12.43;11.13;;;7.10;91.80;;;;;;5017291;28;20478;-72
2022/04/18 05:57:48;;;;;;;13.47;10.50;;;7.30;98.50;;;;;;5028111;28;20048;-71
2022/04/18 06:00:15;;;;;;;13.63;9.97;;;7.50;98.50;;;;;;5027410;28;20017;-70
2022/04/18 06:02:40;;;;;;;15.53;10.73;;;7.30;98.30;;;;;;5009695;28;20117;-71
2022/04/18 06:05:06;;;;;;;11.10;9.83;;;7.30;98.20;;;;;;5009957;28;20101;-71
2022/04/18 06:07:32;;;;;;;11.47;9.50;;;7.30;98.00;;;;;;5025355;28;20033;-71
2022/04/18 06:09:58;;;;;;;11.63;9.60;;;7.70;98.00;;;;;;5011970;28;20022;-72
2022/04/18 06:12:24;;;;;;;13.63;8.87;;;7.50;97.90;;;;;;5017851;28;20134;-71
2022/04/18 06:14:49;;;;;;;17.20;11.80;;;7.70;98.00;;;;;;5027612;28;20053;-71
2022/04/18 06:17:15;;;;;;;12.07;9.90;;;;;;;;;;5029256;28;20045;-71
2022/04/18 06:19:41;;;;;;;11.37;9.03;;;7.80;97.40;;;;;;5027250;28;20061;-71
2022/04/18 06:22:07;;;;;;;10.90;8.00;;;;;;;;;;5029595;28;20437;-70
2022/04/18 06:24:32;;;;;;;11.53;8.77;;;7.90;97.30;;;;;;5023935;28;20121;-71
2022/04/18 06:26:58;;;;;;;10.77;8.80;;;8.00;97.20;;;;;;5032062;28;20034;-70
2022/04/18 06:29:23;;;;;;;9.70;8.20;;;8.20;96.90;;;;;;5027936;28;20417;-71
2022/04/18 06:31:51;;;;;;;9.60;7.70;;;8.20;96.70;;;;;;5027621;28;20121;-71
2022/04/18 06:34:18;;;;;;;9.27;7.03;;;8.40;96.80;;;;;;5019675;28;20534;-71
2022/04/18 06:36:43;;;;;;;13.67;9.63;;;8.50;96.80;;;;;;5031111;28;20075;-71
2022/04/18 06:39:09;;;;;;;8.53;7.37;;;;;;;;;;5020490;28;20596;-71
2022/04/18 06:41:34;;;;;;;9.73;7.67;;;8.50;96.60;;;;;;5030235;28;20055;-71
2022/04/18 06:44:00;;;;;;;8.93;7.60;;;8.60;96.50;;;;;;5029236;28;20037;-71
2022/04/18 06:46:27;;;;;;;8.47;7.10;;;8.60;96.40;;;;;;5025794;28;20480;-71
2022/04/18 06:48:53;;;;;;;10.53;7.70;;;8.70;96.40;;;;;;5029182;28;20025;-71
2022/04/18 06:51:19;;;;;;;11.37;7.37;;;8.70;96.30;;;;;;5031142;28;20029;-71
2022/04/18 06:53:44;;;;;;;8.20;6.37;;;8.80;96.20;;;;;;5018377;28;20025;-71
2022/04/18 06:58:54;;;;;;;7.88;6.30;;;9.00;96.10;;;;;;5021799;28;20394;-71
2022/04/18 07:01:19;;;;;;;6.37;5.10;;;;;;;;;;5016487;28;20116;-71
2022/04/18 07:03:45;;;;;;;6.50;5.30;;;9.20;96.00;;;;;;5012970;28;20037;-72
2022/04/18 07:06:11;;;;;;;9.10;5.90;;;9.00;95.70;;;;;;5027235;28;20494;-71
2022/04/18 07:08:37;;;;;;;7.47;6.20;;;9.60;95.60;;;;;;5029761;28;20033;-71
2022/04/18 07:11:02;;;;;;;6.50;5.20;;;9.40;95.40;;;;;;5016318;28;20022;-72
2022/04/18 07:13:28;;;;;;;7.40;5.77;;;9.50;95.40;;;;;;5014579;28;20060;-71
2022/04/18 07:15:54;;;;;;;7.50;5.67;;;9.80;95.50;;;;;;5030961;28;20054;-70
2022/04/18 07:18:19;;;;;;;6.20;5.03;;;9.70;95.30;;;;;;5029102;28;20410;-71
2022/04/18 07:20:45;;;;;;;5.40;4.90;;;10.10;95.30;;;;;;5031071;28;20021;-70
2022/04/18 07:23:11;;;;;;;5.83;4.60;;;9.80;95.10;;;;;;5027471;28;20030;-69
2022/04/18 07:25:36;;;;;;;5.03;4.10;;;10.10;95.40;;;;;;5018806;28;20033;-70
2022/04/18 07:28:03;;;;;;;5.13;4.07;;;10.00;95.10;;;;;;5020962;28;20026;-70
2022/04/18 07:30:30;;;;;;;4.60;4.00;;;10.10;86.40;;;;;;5018629;28;20371;-70
2022/04/18 07:32:56;;;;;;;3.73;3.00;;;;;;;;;;5021989;28;20025;-71
2022/04/18 07:35:22;;;;;;;4.17;2.77;;;8.10;82.90;;;;;;5031010;28;20021;-71
2022/04/18 07:40:31;;;;;;;2.30;1.95;;;10.60;83.90;;;;;;5030288;28;20049;-71
2022/04/18 07:42:57;;;;;;;5.13;3.10;;;11.00;94.20;;;;;;5030462;28;20030;-71
2022/04/18 07:45:22;;;;;;;3.37;2.73;;;11.00;84.00;;;;;;5032021;28;20029;-71
2022/04/18 07:47:51;;;;;;;5.03;3.47;;;11.30;93.60;;;;;;5031059;28;20029;-71
2022/04/18 07:50:17;;;;;;;6.00;3.10;;;11.40;83.50;;;;;;5031511;28;20095;-71
2022/04/18 07:52:42;;;;;;;5.37;3.77;;;11.60;82.70;;;;;;5031719;28;20487;-71
2022/04/18 07:55:08;;;;;;;4.93;3.03;;;11.70;82.40;;;;;;5031097;28;20026;-71
2022/04/18 07:57:33;;;;;;;4.67;3.53;;;11.70;82.20;;;;;;5030346;28;20120;-70
2022/04/18 07:59:59;;;;;;;3.00;2.60;;;11.90;82.10;;;;;;5027496;28;20679;-70
2022/04/18 08:02:25;;;;;;;3.33;2.42;;;11.90;82.20;;;;;;5030532;28;20545;-70
2022/04/18 08:04:50;;;;;;;3.92;3.00;;;11.90;82.20;;;;;;5028817;28;20033;-71
2022/04/18 08:07:16;;;;;;;5.77;2.50;;;12.10;81.80;;;;;;5031485;28;20039;-71
2022/04/18 08:09:41;;;;;;;3.23;2.40;;;12.20;81.40;;;;;;5029948;28;20060;-70
2022/04/18 08:12:11;;;;;;;3.33;2.50;;;12.90;80.70;;;;;;5022463;28;20026;-70
2022/04/18 08:14:37;;;;;;;2.42;1.65;;;12.50;80.40;;;;;;5011654;28;20537;-71
2022/04/18 08:17:03;;;;;;;3.58;1.92;;;12.50;79.90;;;;;;5022975;28;20041;-71
2022/04/18 08:19:29;;;;;;;3.50;2.08;;;12.70;79.80;;;;;;5031356;28;20128;-71
2022/04/18 08:21:55;;;;;;;2.05;1.85;;;12.70;79.50;;;;;;5031025;28;20074;-71
2022/04/18 08:24:21;;;;;;;2.78;2.00;;;12.80;79.20;;;;;;5030717;28;20033;-71
2022/04/18 08:26:48;;;;;;;3.28;2.08;;;12.80;79.00;;;;;;5030872;28;20068;-70
2022/04/18 08:29:13;;;;;;;3.40;1.80;;;12.90;77.30;;;;;;5030823;28;20037;-71
2022/04/18 08:31:39;;;;;;;1.95;1.60;;;13.00;77.90;;;;;;5030538;28;20037;-70
2022/04/18 08:34:05;;;;;;;2.42;1.40;;;13.00;78.00;;;;;;5026821;28;20106;-70
2022/04/18 08:36:32;;;;;;;2.65;1.65;;;13.10;77.80;;;;;;5018403;28;20033;-70
2022/04/18 08:38:57;;;;;;;2.25;1.77;;;13.20;77.10;;;;;;5026432;28;20482;-71
2022/04/18 08:41:30;;;;;;;4.38;2.35;;;13.50;75.80;;;;;;5030531;28;20054;-73
2022/04/18 08:43:55;;;;;;;2.83;2.05;;;13.50;77.10;;;;;;5029338;28;20438;-72
2022/04/18 08:46:21;;;;;;;3.72;1.52;;;13.60;76.40;;;;;;5028935;28;20044;-72
2022/04/18 08:54:16;;;;;;;3.28;2.15;;;13.80;75.10;;;;;;5029664;28;20440;-71
2022/04/18 08:56:42;;;;;;;1.70;1.40;;;14.00;75.90;;;;;;5029999;28;20068;-71
2022/04/18 08:59:08;;;;;;;2.28;1.77;;;14.10;75.00;;;;;;5030564;28;20459;-71
2022/04/18 09:01:33;;;;;;;2.20;1.67;;;14.10;74.70;;;;;;5030535;28;20043;-72
2022/04/18 09:03:59;;;;;;;4.85;2.35;;;14.20;74.70;;;;;;5030204;28;20486;-71
2022/04/18 09:06:25;;;;;;;2.55;1.50;;;14.20;74.60;;;;;;5029086;28;20041;-71
2022/04/18 09:08:57;;;;;;;4.70;2.60;;;14.40;74.50;;;;;;5010490;28;20034;-72
2022/04/18 09:11:37;;;;;;;2.70;2.05;;;14.50;74.10;;;;;;5009236;28;20026;-72
2022/04/18 09:14:11;;;;;;;3.10;1.90;;;14.50;73.40;;;;;;5009133;28;20037;-72
2022/04/18 09:16:39;;;;;;;3.55;1.85;;;14.70;73.10;;;;;;5010491;28;20038;-71
2022/04/18 09:19:12;;;;;;;3.65;1.88;;;14.70;72.60;;;;;;5010342;28;20029;-71
2022/04/18 09:22:03;;;;;;;4.22;1.60;;;14.70;71.20;;;;;;5011157;28;20160;-72
2022/04/18 09:24:37;;;;;;;5.05;2.50;;;14.80;71.60;;;;;;5029320;28;20107;-71
2022/04/18 09:27:24;;;;;;;4.47;2.03;;;14.80;70.60;;;;;;5029384;28;20022;-72
2022/04/18 09:30:03;;;;;;;2.38;1.75;;;15.10;71.20;;;;;;5030122;28;20039;-71
2022/04/18 09:32:28;;;;;;;2.60;1.42;;;15.10;72.70;;;;;;5029413;28;20462;-72
2022/04/18 09:35:00;;;;;;;2.45;1.58;;;15.10;71.60;;;;;;5029995;28;20083;-72
2022/04/18 09:37:29;;;;;;;3.30;2.05;;;15.30;72.30;;;;;;5029896;28;20040;-73
2022/04/18 09:39:55;;;;;;;2.67;1.90;;;15.30;72.10;;;;;;5029700;28;20049;-70
2022/04/18 09:42:22;;;;;;;2.45;2.10;;;15.40;71.50;;;;;;5022489;28;20037;-71
2022/04/18 09:44:48;;;;;;;4.93;3.03;;;15.50;71.60;;;;;;5025779;28;20061;-72
2022/04/18 09:47:18;;;;;;;3.63;2.85;;;15.50;70.30;;;;;;5029777;28;20187;-73
2022/04/18 09:49:45;;;;;;;2.72;2.38;;;15.60;70.40;;;;;;5029290;28;20028;-73
2022/04/18 09:52:16;;;;;;;3.25;2.17;;;15.70;70.10;;;;;;5029757;28;20021;-72
2022/04/18 09:54:55;;;;;;;4.68;2.63;;;15.80;69.10;;;;;;5029811;28;20021;-71
2022/04/18 09:57:25;;;;;;;3.60;1.83;;;16.00;67.40;;;;;;5031313;28;20041;-73
2022/04/18 09:59:52;;;;;;;3.20;1.92;;;15.90;69.20;;;;;;5032452;28;20041;-72
2022/04/18 10:02:18;;;;;;;4.68;1.45;;;16.00;68.70;;;;;;5014851;28;20379;-72
2022/04/18 10:04:44;;;;;;;3.17;2.10;;;16.00;68.20;;;;;;5032361;28;20032;-72
2022/04/18 10:07:12;;;;;;;4.40;2.28;;;16.10;68.40;;;;;;5029269;28;20099;-72
2022/04/18 10:09:42;;;;;;;3.65;2.92;;;16.20;68.00;;;;;;5032001;28;20013;-72
2022/04/18 10:12:09;;;;;;;4.30;1.60;;;16.20;66.30;;;;;;5031960;28;20022;-72
2022/04/18 10:14:37;;;;;;;4.43;2.00;;;16.10;67.80;;;;;;5030878;28;20037;-72
2022/04/18 10:17:05;;;;;;;3.17;2.25;;;16.10;68.10;;;;;;5031823;28;20073;-72
2022/04/18 10:19:49;;;;;;;3.30;1.98;;;16.20;67.20;;;;;;5033243;28;20029;-72
2022/04/18 10:22:49;;;;;;;6.10;2.50;;;16.20;67.90;;;;;;5032761;28;20045;-71
2022/04/18 10:25:49;;;;;;;2.38;1.67;;;16.30;65.70;;;;;;5013887;28;20483;-72
2022/04/18 10:28:14;;;;;;;2.42;1.92;;;16.30;65.50;;;;;;5014592;28;20703;-72
2022/04/18 10:30:48;;;;;;;2.30;1.77;;;16.30;65.60;;;;;;5013546;28;20049;-72
2022/04/18 10:33:14;;;;;;;4.78;2.20;;;16.40;66.30;;;;;;5013104;28;20048;-72
2022/04/18 10:35:47;;;;;;;3.40;2.85;;;16.60;65.20;;;;;;5012309;28;20116;-71
2022/04/18 10:38:13;;;;;;;2.90;1.80;;;16.60;65.70;;;;;;5016452;28;20486;-71
2022/04/18 10:40:40;;;;;;;3.17;2.28;;;16.70;64.70;;;;;;5031759;28;20053;-71
2022/04/18 10:43:08;;;;;;;2.47;2.00;;;16.80;64.80;;;;;;5021529;28;20030;-71
2022/04/18 10:45:34;;;;;;;3.80;1.80;;;16.80;64.90;;;;;;5028122;28;20033;-71
2022/04/18 10:48:10;;;;;;;3.00;2.13;;;16.80;64.30;;;;;;5032209;28;20363;-72
2022/04/18 10:50:44;;;;;;;1.88;1.63;;;16.90;62.50;;;;;;5033112;28;20164;-72
2022/04/18 10:53:19;;;;;;;1.55;1.42;;;17.00;63.00;;;;;;5032883;28;20029;-72
2022/04/18 10:55:50;;;;;;;3.03;2.30;;;17.60;65.30;;;;;;5033311;28;20040;-71
2022/04/18 10:58:20;;;;;;;2.28;1.77;;;17.00;64.40;;;;;;5026423;28;20045;-71
2022/04/18 11:00:50;;;;;;;4.18;2.63;;;17.10;63.60;;;;;;5013241;28;20064;-72
2022/04/18 11:03:34;;;;;;;2.83;2.30;;;17.20;64.00;;;;;;5012411;28;20073;-71
2022/04/18 11:06:00;;;;;;;3.00;2.60;;;17.20;64.00;;;;;;5012461;28;20026;-71
2022/04/18 11:08:29;;;;;;;4.57;3.17;;;17.20;63.00;;;;;;5012396;28;20395;-71
2022/04/18 11:11:06;;;;;;;3.00;2.22;;;17.30;64.10;;;;;;5012696;28;20033;-72
2022/04/18 11:13:33;;;;;;;1.90;1.48;;;17.20;61.30;;;;;;5032268;28;20083;-72
2022/04/18 11:16:24;;;;;;;2.22;1.70;;;17.20;61.20;;;;;;5032002;28;20025;-71
2022/04/18 11:19:19;;;;;;;3.25;1.27;;;17.30;61.40;;;;;;5031781;28;20049;-72
2022/04/18 11:22:01;;;;;;;2.15;1.88;;;17.30;61.70;;;;;;5031260;28;20041;-72
2022/04/18 11:24:49;;;;;;;3.05;2.25;;;17.30;59.60;;;;;;5029167;28;20384;-72
2022/04/18 11:27:17;;;;;;;2.10;1.85;;;17.30;60.10;;;;;;5032072;28;20057;-71
2022/04/18 11:29:46;;;;;;;4.20;1.88;;;17.20;59.40;;;;;;5032692;28;20033;-71
2022/04/18 11:32:16;;;;;;;1.85;1.50;;;17.20;59.80;;;;;;5031404;28;20029;-71
2022/04/18 11:34:43;;;;;;;4.70;3.10;;;17.10;60.20;;;;;;5032328;28;20041;-72
2022/04/18 11:37:10;;;;;;;3.30;2.20;;;17.30;59.50;;;;;;5031796;28;20041;-71
2022/04/18 11:39:46;;;;;;;2.63;1.73;;;17.30;59.10;;;;;;5032088;28;20103;-71
2022/04/18 11:42:16;;;;;;;3.45;1.52;;;17.40;58.70;;;;;;5024986;28;20037;-71
2022/04/18 11:44:43;;;;;;;2.65;1.67;;;17.60;61.00;;;;;;5011041;28;20030;-71
2022/04/18 11:47:11;;;;;;;2.40;2.20;;;17.50;60.30;;;;;;5009986;28;20846;-72
2022/04/18 11:49:38;;;;;;;2.55;1.58;;;17.60;60.70;;;;;;5012054;28;20038;-71
2022/04/18 11:52:04;;;;;;;3.13;2.00;;;17.60;60.80;;;;;;5011497;28;20026;-71
2022/04/18 11:54:29;;;;;;;2.38;2.13;;;17.60;60.60;;;;;;5012039;28;20026;-72
2022/04/18 11:57:00;;;;;;;2.22;1.73;;;17.70;60.70;;;;;;5013117;28;20087;-72
2022/04/18 11:59:29;;;;;;;2.38;1.55;;;17.70;61.60;;;;;;5031851;28;20030;-74
2022/04/18 12:07:25;;;;;;;2.63;2.20;;;17.70;59.80;;;;;;5031755;28;20038;-73
2022/04/18 12:09:50;;;;;;;3.88;1.50;;;17.80;59.70;;;;;;5031424;28;20029;-73
2022/04/18 12:12:27;;;;;;;3.33;2.03;;;17.80;59.30;;;;;;5022123;28;20037;-73
2022/04/18 12:14:53;;;;;;;3.60;2.40;;;17.70;59.80;;;;;;5011111;28;20041;-73
2022/04/18 12:17:18;;;;;;;3.20;2.10;;;17.90;59.50;;;;;;5011321;28;20030;-73
2022/04/18 12:19:44;;;;;;;3.67;2.45;;;17.90;59.10;;;;;;5011027;28;20026;-73
2022/04/18 12:22:20;;;;;;;5.13;2.30;;;18.00;59.80;;;;;;5009850;28;20305;-73
2022/04/18 12:24:46;;;;;;;2.80;2.50;;;18.00;60.00;;;;;;5011900;28;20084;-73
2022/04/18 12:27:11;;;;;;;2.70;2.47;;;17.80;58.60;;;;;;5011263;28;20022;-70
2022/04/18 12:29:37;;;;;;;3.40;2.78;;;18.00;58.50;;;;;;5019794;28;20494;-73
2022/04/18 12:32:03;;;;;;;2.08;1.70;;;18.10;59.00;;;;;;5030599;28;20382;-71
2022/04/18 12:34:32;;;;;;;2.67;1.75;;;18.20;58.80;;;;;;5031003;28;20038;-71
2022/04/18 12:36:59;;;;;;;4.03;2.88;;;18.20;57.10;;;;;;5030395;28;20026;-71
2022/04/18 12:39:26;;;;;;;2.72;2.33;;;18.20;58.60;;;;;;5030930;28;20029;-71
2022/04/18 12:42:13;;;;;;;2.45;1.77;;;18.30;58.30;;;;;;5025092;28;20049;-71
2022/04/18 12:44:42;;;;;;;4.60;2.20;;;18.20;59.80;;;;;;5010867;28;20025;-71
2022/04/18 12:47:21;;;;;;;3.65;2.45;;;18.20;56.40;;;;;;5017382;28;20037;-70
2022/04/18 12:50:09;;;;;;;2.90;2.60;;;18.30;57.50;;;;;;5030944;28;20084;-70
2022/04/18 12:52:44;;;;;;;2.42;2.03;;;18.30;57.60;;;;;;5030514;28;20056;-70
2022/04/18 12:55:10;;;;;;;3.67;3.10;;;18.30;58.10;;;;;;5030093;28;20022;-69
2022/04/18 12:57:36;;;;;;;3.88;2.05;;;18.30;57.50;;;;;;5029051;28;20042;-69
2022/04/18 13:00:14;;;;;;;2.47;1.77;;;18.30;57.70;;;;;;5029475;28;20018;-69
2022/04/18 13:02:40;;;;;;;3.50;1.85;;;18.40;58.40;;;;;;5030533;28;20108;-73
2022/04/18 13:05:06;;;;;;;2.00;1.50;;;18.40;57.00;;;;;;5029882;28;20074;-72
2022/04/18 13:07:40;;;;;;;4.57;2.97;;;18.50;56.30;;;;;;5030571;28;20026;-73
2022/04/18 13:10:07;;;;;;;2.42;2.22;;;18.70;55.90;;;;;;5029407;28;20075;-72
2022/04/18 13:12:33;;;;;;;2.25;1.52;;;18.60;58.10;;;;;;5019103;28;20034;-73
2022/04/18 13:15:04;;;;;;;2.50;1.90;;;18.50;59.10;;;;;;5010152;28;20101;-72
2022/04/18 13:17:32;;;;;;;1.75;1.45;;;18.50;60.50;;;;;;5024808;28;20037;-72
2022/04/18 13:19:59;;;;;;;1.73;1.30;;;18.50;60.00;;;;;;5029741;28;20018;-73
2022/04/18 13:22:24;;;;;;;3.80;1.38;;;18.50;59.20;;;;;;5030247;28;20112;-73